createdAt,value
2019-03-04T00:04:36.029Z,71.84
2019-03-04T00:07:05.423Z,71.54
2019-03-04T00:13:23.821Z,71.32
2019-03-04T00:15:53.208Z,71.39
2019-03-04T00:19:01.884Z,70.96
2019-03-04T00:21:31.900Z,71.47
2019-03-04T00:24:01.419Z,71.67
2019-03-04T00:26:31.017Z,71.70
2019-03-04T00:29:00.469Z,72.12
2019-03-04T00:31:30.463Z,72.09
2019-03-04T00:34:40.847Z,72.29
2019-03-04T00:37:10.260Z,72.22
2019-03-04T00:42:35.075Z,72.21
2019-03-04T00:54:22.955Z,72.07
2019-03-04T01:03:14.460Z,72.63
2019-03-04T01:05:44.115Z,72.89
2019-03-04T01:08:14.293Z,72.88
2019-03-04T01:10:43.743Z,73.17
2019-03-04T01:13:13.245Z,73.08
2019-03-04T01:15:42.858Z,73.10
2019-03-04T01:18:12.362Z,73.04
2019-03-04T01:26:58.295Z,72.27
2019-03-04T01:29:28.518Z,72.09
2019-03-04T01:32:40.223Z,72.22
2019-03-04T01:38:25.721Z,72.63
2019-03-04T01:40:55.094Z,72.15
2019-03-04T01:43:24.816Z,72.04
2019-03-04T01:45:54.359Z,71.69
2019-03-04T01:48:23.750Z,71.83
2019-03-04T01:51:12.274Z,72.17
2019-03-04T01:53:41.831Z,72.23
2019-03-04T01:56:50.521Z,72.57
2019-03-04T02:02:22.327Z,72.00
2019-03-04T02:04:51.858Z,71.95
2019-03-04T02:07:21.586Z,71.61
2019-03-04T02:09:51.118Z,71.39
2019-03-04T02:13:00.020Z,71.32
2019-03-04T02:15:29.953Z,71.59
2019-03-04T02:18:18.753Z,71.38
2019-03-04T02:20:49.239Z,71.30
2019-03-04T02:23:18.690Z,71.26
2019-03-04T02:29:03.843Z,71.72
2019-03-04T02:31:34.047Z,71.37
2019-03-04T02:34:03.614Z,71.43
2019-03-04T02:37:13.003Z,71.77
2019-03-04T02:42:50.975Z,71.75
2019-03-04T02:45:32.535Z,71.68
2019-03-04T02:51:04.217Z,71.40
2019-03-04T02:53:33.658Z,71.37
2019-03-04T02:56:02.980Z,71.28
2019-03-04T02:59:12.017Z,71.17
2019-03-04T03:01:42.012Z,71.03
2019-03-04T03:04:11.392Z,71.47
2019-03-04T03:09:54.873Z,71.25
2019-03-04T03:12:24.378Z,71.03
2019-03-04T03:14:54.214Z,70.87
2019-03-04T03:21:17.628Z,70.56
2019-03-04T03:24:06.030Z,70.74
2019-03-04T03:26:56.841Z,70.66
2019-03-04T03:29:26.734Z,70.82
2019-03-04T03:31:56.265Z,70.73
2019-03-04T03:34:26.123Z,70.92
2019-03-04T03:36:55.590Z,70.73
2019-03-04T03:39:25.107Z,70.53
2019-03-04T03:41:54.598Z,70.84
2019-03-04T03:47:19.935Z,70.78
2019-03-04T03:49:49.345Z,70.95
2019-03-04T03:55:33.205Z,70.71
2019-03-04T03:58:24.973Z,70.75
2019-03-04T04:04:08.763Z,70.80
2019-03-04T04:06:38.199Z,70.75
2019-03-04T04:12:22.844Z,70.78
2019-03-04T04:15:11.669Z,71.11
2019-03-04T04:17:41.189Z,71.04
2019-03-04T04:23:25.733Z,71.07
2019-03-04T04:25:55.751Z,71.11
2019-03-04T04:28:26.286Z,71.01
2019-03-04T04:34:03.444Z,71.15
2019-03-04T04:36:32.831Z,71.59
2019-03-04T04:39:02.299Z,71.25
2019-03-04T04:41:32.396Z,70.99
2019-03-04T04:44:41.101Z,71.02
2019-03-04T04:47:11.558Z,71.18
2019-03-04T04:49:40.962Z,71.40
2019-03-04T04:52:10.522Z,71.19
2019-03-04T04:54:40.005Z,71.43
2019-03-04T04:57:09.366Z,71.41
2019-03-04T05:00:18.080Z,71.85
2019-03-04T05:08:45.747Z,72.04
2019-03-04T05:11:15.534Z,72.43
2019-03-04T05:14:24.486Z,72.17
2019-03-04T05:16:53.922Z,71.73
2019-03-04T05:22:18.222Z,72.03
2019-03-04T05:27:36.469Z,71.67
2019-03-04T05:30:45.145Z,71.53
2019-03-04T05:39:31.053Z,71.53
2019-03-04T05:42:39.985Z,71.90
2019-03-04T05:48:07.791Z,71.56
2019-03-04T05:50:39.486Z,71.80
2019-03-04T05:53:48.603Z,71.64
2019-03-04T05:56:18.820Z,71.41
2019-03-04T06:05:12.097Z,71.56
2019-03-04T06:07:49.259Z,71.37
2019-03-04T06:10:38.104Z,71.30
2019-03-04T06:13:09.796Z,71.40
2019-03-04T06:18:34.904Z,71.54
2019-03-04T06:21:04.327Z,71.28
2019-03-04T06:26:23.923Z,71.03
2019-03-04T06:32:02.269Z,70.76
2019-03-04T06:37:58.237Z,70.83
2019-03-04T06:40:46.840Z,71.10
2019-03-04T06:43:55.759Z,71.40
2019-03-04T06:46:25.879Z,71.57
2019-03-04T06:49:14.263Z,71.38
2019-03-04T06:55:13.597Z,72.00
2019-03-04T06:57:47.697Z,71.86
2019-03-04T07:00:56.457Z,71.58
2019-03-04T07:06:45.976Z,71.80
2019-03-04T07:12:16.242Z,72.32
2019-03-04T07:20:49.621Z,71.67
2019-03-04T07:23:58.628Z,70.98
2019-03-04T07:27:07.460Z,70.37
2019-03-04T07:32:52.053Z,69.61
2019-03-04T07:35:21.677Z,69.50
2019-03-04T07:38:35.585Z,69.10
2019-03-04T07:41:05.203Z,68.71
2019-03-04T07:43:36.101Z,68.33
2019-03-04T07:46:45.790Z,68.52
2019-03-04T07:49:15.641Z,67.97
2019-03-04T07:51:45.169Z,67.14
2019-03-04T07:54:15.122Z,66.63
2019-03-04T07:56:44.644Z,66.58
2019-03-04T07:59:14.077Z,65.67
2019-03-04T08:07:55.074Z,63.87
2019-03-04T08:11:03.145Z,62.88
2019-03-04T08:14:05.591Z,61.67
2019-03-04T08:20:08.397Z,59.45
2019-03-04T08:22:38.986Z,59.16
2019-03-04T08:25:35.085Z,59.16
2019-03-04T08:34:00.468Z,55.76
2019-03-04T08:36:29.784Z,55.34
2019-03-04T08:39:38.632Z,55.93
2019-03-04T08:42:27.464Z,56.72
2019-03-04T08:51:02.218Z,57.37
2019-03-04T08:53:52.027Z,57.64
2019-03-04T08:56:21.772Z,58.99
2019-03-04T08:58:51.319Z,59.01
2019-03-04T09:02:00.093Z,58.19
2019-03-04T09:04:29.823Z,56.87
2019-03-04T09:15:59.764Z,42.22
2019-03-04T09:19:08.565Z,31.01
2019-03-04T09:21:38.024Z,27.26
2019-03-04T09:24:08.013Z,23.25
2019-03-04T09:27:16.713Z,21.97
2019-03-04T09:32:26.225Z,24.06
2019-03-04T09:35:14.625Z,25.84
2019-03-04T09:38:23.769Z,30.53
2019-03-04T09:40:54.182Z,33.19
2019-03-04T09:43:23.613Z,34.91
2019-03-04T09:45:53.696Z,35.99
2019-03-04T09:48:23.233Z,36.49
2019-03-04T09:50:52.644Z,39.01
2019-03-04T09:53:22.151Z,39.01
2019-03-04T09:55:51.766Z,35.47
2019-03-04T09:58:21.676Z,34.10
2019-03-04T10:01:13.693Z,28.68
2019-03-04T10:04:21.211Z,27.72
2019-03-04T10:07:33.171Z,23.14
2019-03-04T10:10:27.668Z,20.03
2019-03-04T10:13:20.197Z,25.79
2019-03-04T10:16:18.659Z,32.54
2019-03-04T10:19:22.533Z,35.91
2019-03-04T10:22:13.981Z,38.90
2019-03-04T10:25:21.737Z,41.74
2019-03-04T10:28:29.198Z,31.83
2019-03-04T10:31:30.307Z,27.34
2019-03-04T10:34:39.069Z,25.84
2019-03-04T10:37:46.780Z,21.37
2019-03-04T10:40:58.350Z,19.42
2019-03-04T10:44:23.051Z,18.16
2019-03-04T10:47:11.847Z,18.40
2019-03-04T10:55:52.127Z,17.28
2019-03-04T10:58:22.039Z,16.02
2019-03-04T11:00:51.471Z,15.01
2019-03-04T11:03:21.119Z,14.94
2019-03-04T11:06:29.806Z,15.09
2019-03-04T11:08:59.590Z,16.00
2019-03-04T11:11:30.099Z,15.18
2019-03-04T11:14:00.357Z,17.08
2019-03-04T11:16:49.099Z,18.79
2019-03-04T11:19:57.830Z,19.33
2019-03-04T11:25:42.779Z,14.92
2019-03-04T11:31:20.088Z,20.09
2019-03-04T11:37:04.819Z,19.63
2019-03-04T11:39:53.388Z,18.72
2019-03-04T11:42:23.216Z,18.47
2019-03-04T11:44:52.519Z,17.91
2019-03-04T11:47:25.932Z,17.61
2019-03-04T11:49:55.448Z,18.93
2019-03-04T11:52:24.829Z,19.45
2019-03-04T11:54:54.297Z,22.05
2019-03-04T11:57:23.815Z,25.30
2019-03-04T11:59:53.286Z,27.12
2019-03-04T12:02:24.610Z,29.17
2019-03-04T12:04:54.010Z,31.94
2019-03-04T12:07:23.488Z,34.49
2019-03-04T12:09:53.816Z,34.95
2019-03-04T12:12:23.212Z,33.91
2019-03-04T12:14:52.593Z,33.11
2019-03-04T12:17:22.476Z,31.21
2019-03-04T12:19:52.021Z,29.38
2019-03-04T12:22:21.525Z,28.06
2019-03-04T12:24:50.831Z,26.47
2019-03-04T12:27:20.291Z,23.58
2019-03-04T12:29:49.816Z,24.01
2019-03-04T12:32:22.963Z,25.52
2019-03-04T12:34:52.518Z,23.90
2019-03-04T12:37:21.898Z,22.34
2019-03-04T12:39:51.705Z,22.46
2019-03-04T12:42:21.116Z,21.42
2019-03-04T12:44:50.824Z,20.69
2019-03-04T12:47:20.289Z,19.29
2019-03-04T12:49:50.430Z,18.02
2019-03-04T12:52:19.913Z,18.08
2019-03-04T12:54:49.326Z,18.32
2019-03-04T12:57:19.076Z,18.17
2019-03-04T13:00:28.009Z,20.06
2019-03-04T13:02:58.185Z,21.20
2019-03-04T13:05:27.818Z,21.29
2019-03-04T13:07:57.287Z,24.28
2019-03-04T13:10:28.075Z,28.34
2019-03-04T13:12:57.515Z,26.09
2019-03-04T13:15:27.469Z,22.70
2019-03-04T13:17:58.375Z,21.29
2019-03-04T13:20:28.094Z,19.86
2019-03-04T13:22:57.475Z,21.04
2019-03-04T13:25:26.862Z,22.06
2019-03-04T13:28:07.491Z,21.78
2019-03-04T13:30:28.727Z,20.61
2019-03-04T13:32:58.235Z,19.98
2019-03-04T13:35:27.670Z,19.62
2019-03-04T13:37:57.414Z,20.83
2019-03-04T13:43:41.878Z,27.83
2019-03-04T13:46:11.552Z,30.85
2019-03-04T13:48:40.933Z,33.05
2019-03-04T13:51:11.206Z,35.12
2019-03-04T13:53:40.957Z,36.08
2019-03-04T13:56:10.745Z,37.33
2019-03-04T13:58:40.210Z,38.96
2019-03-04T14:01:09.721Z,40.34
2019-03-04T14:03:39.440Z,41.86
2019-03-04T14:06:09.164Z,42.02
2019-03-04T14:08:38.556Z,42.57
2019-03-04T14:11:09.524Z,42.17
2019-03-04T14:13:38.924Z,42.67
2019-03-04T14:16:08.859Z,42.27
2019-03-04T14:18:40.275Z,43.27
2019-03-04T14:21:10.438Z,43.50
2019-03-04T14:23:39.872Z,44.09
2019-03-04T14:26:09.333Z,43.98
2019-03-04T14:28:39.202Z,44.29
2019-03-04T14:31:08.615Z,43.58
2019-03-04T14:33:39.342Z,44.34
2019-03-04T14:36:08.739Z,43.85
2019-03-04T14:38:38.213Z,44.38
2019-03-04T14:41:07.727Z,44.50
2019-03-04T14:43:37.493Z,44.70
2019-03-04T14:46:06.931Z,45.18
2019-03-04T14:48:36.396Z,44.87
2019-03-04T14:51:06.169Z,45.82
2019-03-04T14:53:35.825Z,45.94
2019-03-04T14:56:05.936Z,45.61
2019-03-04T14:58:35.532Z,46.46
2019-03-04T15:01:05.856Z,46.60
2019-03-04T15:03:35.235Z,46.60
2019-03-04T15:06:07.173Z,46.31
2019-03-04T15:08:36.173Z,46.31
2019-03-04T15:11:05.905Z,47.00
2019-03-04T15:13:35.417Z,47.21
2019-03-04T15:16:06.232Z,48.14
2019-03-04T15:18:35.724Z,47.74
2019-03-04T15:21:06.668Z,48.37
2019-03-04T15:23:36.086Z,48.69
2019-03-04T15:26:06.406Z,48.69
2019-03-04T15:28:35.815Z,48.63
2019-03-04T15:31:05.163Z,48.69
2019-03-04T15:33:34.704Z,48.60
2019-03-04T15:36:04.187Z,48.84
2019-03-04T15:38:33.921Z,49.79
2019-03-04T15:41:03.445Z,50.15
2019-03-04T15:43:33.141Z,51.09
2019-03-04T15:46:03.429Z,50.16
2019-03-04T15:48:33.667Z,50.93
2019-03-04T15:51:03.594Z,51.29
2019-03-04T15:53:33.971Z,51.65
2019-03-04T15:56:03.349Z,52.02
2019-03-04T15:58:33.116Z,52.24
2019-03-04T16:01:04.636Z,53.05
2019-03-04T16:03:36.631Z,53.36
2019-03-04T16:06:06.576Z,53.52
2019-03-04T16:08:36.119Z,54.10
2019-03-04T16:11:06.709Z,54.92
2019-03-04T16:13:36.229Z,55.01
2019-03-04T16:16:05.683Z,55.06
2019-03-04T16:18:35.248Z,55.79
2019-03-04T16:21:04.834Z,55.30
2019-03-04T16:23:34.215Z,56.34
2019-03-04T16:26:10.522Z,56.36
2019-03-04T16:28:40.037Z,56.36
2019-03-04T16:31:09.488Z,56.58
2019-03-04T16:33:39.525Z,57.08
2019-03-04T16:36:09.349Z,57.12
2019-03-04T16:38:38.728Z,57.12
2019-03-04T16:41:08.941Z,58.36
2019-03-04T16:43:38.524Z,58.16
2019-03-04T16:46:08.333Z,58.67
2019-03-04T16:48:38.078Z,59.22
2019-03-04T16:51:08.015Z,60.26
2019-03-04T16:53:37.781Z,59.56
2019-03-04T16:56:07.250Z,59.56
2019-03-04T16:58:37.034Z,59.56
2019-03-04T17:01:09.776Z,59.68
2019-03-04T17:03:39.355Z,59.68
2019-03-04T17:06:10.691Z,60.79
2019-03-04T17:08:41.934Z,60.79
2019-03-04T17:11:11.959Z,60.69
2019-03-04T17:13:41.708Z,60.64
2019-03-04T17:16:11.234Z,61.77
2019-03-04T17:18:40.583Z,61.77
2019-03-04T17:21:10.439Z,61.48
2019-03-04T17:23:40.600Z,62.77
2019-03-04T17:26:10.111Z,63.45
2019-03-04T17:28:39.908Z,63.67
2019-03-04T17:31:10.110Z,62.74
2019-03-04T17:33:40.421Z,63.64
2019-03-04T17:36:14.062Z,64.37
2019-03-04T17:38:46.124Z,63.73
2019-03-04T17:41:16.371Z,64.97
2019-03-04T17:43:46.126Z,65.38
2019-03-04T17:46:15.539Z,65.31
2019-03-04T17:48:45.353Z,65.79
2019-03-04T17:51:16.049Z,65.88
2019-03-04T17:53:45.639Z,65.88
2019-03-04T17:56:16.785Z,65.38
2019-03-04T17:58:46.936Z,65.62
2019-03-04T18:01:16.403Z,66.63
2019-03-04T18:03:45.783Z,66.01
2019-03-04T18:06:15.292Z,65.96
2019-03-04T18:08:44.649Z,65.93
2019-03-04T18:11:14.045Z,65.99
2019-03-04T18:13:43.469Z,65.37
2019-03-04T18:16:12.833Z,64.72
2019-03-04T18:18:42.566Z,65.04
2019-03-04T18:21:12.003Z,65.61
2019-03-04T18:23:41.571Z,64.86
2019-03-04T18:26:18.017Z,64.54
2019-03-04T18:29:37.235Z,64.94
2019-03-04T18:32:38.498Z,64.88
2019-03-04T18:35:51.702Z,65.04
2019-03-04T18:38:35.368Z,65.74
2019-03-04T18:41:28.397Z,66.28
2019-03-04T18:44:37.982Z,66.37
2019-03-04T18:47:29.451Z,66.46
2019-03-04T18:49:58.850Z,66.93
2019-03-04T18:52:28.699Z,66.80
2019-03-04T18:55:37.685Z,66.32
2019-03-04T18:58:11.341Z,66.58
2019-03-04T19:00:43.149Z,66.89
2019-03-04T19:03:24.997Z,66.35
2019-03-04T19:05:54.610Z,66.44
2019-03-04T19:14:14.287Z,66.00
2019-03-04T19:19:32.523Z,66.12
2019-03-04T19:22:01.918Z,66.45
2019-03-04T19:24:31.893Z,66.94
2019-03-04T19:27:01.479Z,66.71
2019-03-04T19:29:30.911Z,66.86
2019-03-04T19:32:03.196Z,65.96
2019-03-04T19:34:32.610Z,66.68
2019-03-04T19:37:02.316Z,66.20
2019-03-04T19:39:31.944Z,66.80
2019-03-04T19:42:01.342Z,66.82
2019-03-04T19:44:31.350Z,68.25
2019-03-04T19:47:01.879Z,68.18
2019-03-04T19:49:31.366Z,68.23
2019-03-04T19:52:00.815Z,68.16
2019-03-04T19:54:30.509Z,67.80
2019-03-04T19:57:00.306Z,67.42
2019-03-04T19:59:29.915Z,68.12
2019-03-04T20:01:59.588Z,68.07
2019-03-04T20:04:29.336Z,68.25
2019-03-04T20:06:58.879Z,68.47
2019-03-04T20:09:28.695Z,68.08
2019-03-04T20:11:58.132Z,67.51
2019-03-04T20:14:27.477Z,67.77
2019-03-04T20:16:57.543Z,67.47
2019-03-04T20:19:26.901Z,67.33
2019-03-04T20:21:56.446Z,66.73
2019-03-04T20:24:26.294Z,66.21
2019-03-04T20:26:55.714Z,65.47
2019-03-04T20:30:04.580Z,65.37
2019-03-04T20:36:25.951Z,64.42
2019-03-04T20:38:55.614Z,64.37
2019-03-04T20:44:21.422Z,63.67
2019-03-04T20:49:58.635Z,63.43
2019-03-04T20:52:28.131Z,63.33
2019-03-04T20:57:53.603Z,63.14
2019-03-04T21:01:03.029Z,63.04
2019-03-04T21:03:35.294Z,62.83
2019-03-04T21:06:04.767Z,62.63
2019-03-04T21:08:34.126Z,62.52
2019-03-04T21:11:03.731Z,62.44
2019-03-04T21:13:35.889Z,62.43
2019-03-04T21:16:06.474Z,62.66
2019-03-04T21:18:36.736Z,62.86
2019-03-04T21:21:06.674Z,62.59
2019-03-04T21:23:36.173Z,63.13
2019-03-04T21:26:21.058Z,63.06
2019-03-04T21:29:40.606Z,63.30
2019-03-04T21:32:37.775Z,63.24
2019-03-04T21:36:06.257Z,63.52
2019-03-04T21:39:15.791Z,63.46
2019-03-04T21:42:30.917Z,63.86
2019-03-04T21:45:13.810Z,63.87
2019-03-04T21:47:48.176Z,64.40
2019-03-04T21:50:20.821Z,64.43
2019-03-04T21:59:34.854Z,64.97
2019-03-04T22:02:43.781Z,65.03
2019-03-04T22:05:55.370Z,64.86
2019-03-04T22:11:34.112Z,64.90
2019-03-04T22:14:04.055Z,64.86
2019-03-04T22:16:34.720Z,64.75
2019-03-04T22:19:43.420Z,64.72
2019-03-04T22:22:13.061Z,64.49
2019-03-04T22:24:42.524Z,64.53
2019-03-04T22:27:11.990Z,64.38
2019-03-04T22:30:20.768Z,64.27
2019-03-04T22:36:05.237Z,64.57
2019-03-04T22:41:43.675Z,64.50
2019-03-04T22:44:13.073Z,64.55
2019-03-04T22:46:42.578Z,64.13
2019-03-04T22:49:51.278Z,64.29
2019-03-04T22:58:43.716Z,64.66
2019-03-04T23:01:43.810Z,64.63
2019-03-04T23:04:51.267Z,64.87
2019-03-04T23:08:02.077Z,65.14
2019-03-04T23:11:29.833Z,65.09
2019-03-04T23:14:37.400Z,65.22
2019-03-04T23:17:07.353Z,65.70
2019-03-04T23:23:03.070Z,65.40
2019-03-04T23:25:32.454Z,65.68
2019-03-04T23:28:01.827Z,65.81
2019-03-04T23:30:31.555Z,65.71
2019-03-04T23:39:17.459Z,65.85
2019-03-04T23:42:26.214Z,65.78
2019-03-04T23:44:55.646Z,65.52
2019-03-04T23:47:37.439Z,65.40
2019-03-04T23:50:36.535Z,65.04
2019-03-04T23:53:05.956Z,65.21
2019-03-04T23:59:11.203Z,65.30
